sensor_id;sensor_type;location;lat;lon;timestamp;P1;durP1;ratioP1;P2;durP2;ratioP2
11931;SDS011;6025;51.368;6.788;2023-01-16T00:04:01;1.63;;;0.90;;
11931;SDS011;6025;51.368;6.788;2023-01-16T00:08:53;3.97;;;0.77;;
11931;SDS011;6025;51.368;6.788;2023-01-16T00:13:45;1.80;;;0.67;;
11931;SDS011;6025;51.368;6.788;2023-01-16T00:18:36;2.50;;;0.67;;
11931;SDS011;6025;51.368;6.788;2023-01-16T00:23:29;2.13;;;0.70;;
11931;SDS011;6025;51.368;6.788;2023-01-16T00:28:20;4.57;;;0.80;;
11931;SDS011;6025;51.368;6.788;2023-01-16T00:33:12;1.40;;;0.80;;
11931;SDS011;6025;51.368;6.788;2023-01-16T00:38:04;2.83;;;0.80;;
11931;SDS011;6025;51.368;6.788;2023-01-16T00:42:57;2.33;;;0.80;;
11931;SDS011;6025;51.368;6.788;2023-01-16T00:47:48;3.80;;;0.80;;
11931;SDS011;6025;51.368;6.788;2023-01-16T00:52:40;1.03;;;0.67;;
11931;SDS011;6025;51.368;6.788;2023-01-16T00:57:31;1.73;;;0.90;;
11931;SDS011;6025;51.368;6.788;2023-01-16T01:02:24;2.53;;;0.80;;
11931;SDS011;6025;51.368;6.788;2023-01-16T01:07:16;1.70;;;0.70;;
11931;SDS011;6025;51.368;6.788;2023-01-16T01:12:07;2.27;;;0.90;;
11931;SDS011;6025;51.368;6.788;2023-01-16T01:16:59;2.77;;;1.00;;
11931;SDS011;6025;51.368;6.788;2023-01-16T01:21:51;2.60;;;0.80;;
11931;SDS011;6025;51.368;6.788;2023-01-16T01:26:43;4.03;;;0.87;;
11931;SDS011;6025;51.368;6.788;2023-01-16T01:31:35;3.20;;;0.87;;
11931;SDS011;6025;51.368;6.788;2023-01-16T01:36:27;2.90;;;0.90;;
11931;SDS011;6025;51.368;6.788;2023-01-16T01:41:20;3.00;;;0.90;;
11931;SDS011;6025;51.368;6.788;2023-01-16T01:46:15;2.57;;;0.90;;
11931;SDS011;6025;51.368;6.788;2023-01-16T01:51:12;2.03;;;0.97;;
11931;SDS011;6025;51.368;6.788;2023-01-16T01:56:07;2.30;;;1.00;;
11931;SDS011;6025;51.368;6.788;2023-01-16T02:01:04;4.00;;;0.80;;
11931;SDS011;6025;51.368;6.788;2023-01-16T02:05:56;2.93;;;1.10;;
11931;SDS011;6025;51.368;6.788;2023-01-16T02:10:49;2.47;;;0.80;;
11931;SDS011;6025;51.368;6.788;2023-01-16T02:15:43;2.70;;;0.90;;
11931;SDS011;6025;51.368;6.788;2023-01-16T02:20:52;2.83;;;0.80;;
11931;SDS011;6025;51.368;6.788;2023-01-16T02:31:05;3.07;;;0.97;;
11931;SDS011;6025;51.368;6.788;2023-01-16T02:36:04;0.77;;;0.53;;
11931;SDS011;6025;51.368;6.788;2023-01-16T02:41:02;4.40;;;1.03;;
11931;SDS011;6025;51.368;6.788;2023-01-16T02:46:02;3.57;;;0.70;;
11931;SDS011;6025;51.368;6.788;2023-01-16T02:51:02;3.57;;;1.00;;
11931;SDS011;6025;51.368;6.788;2023-01-16T02:55:56;4.80;;;0.90;;
11931;SDS011;6025;51.368;6.788;2023-01-16T03:00:53;2.37;;;0.70;;
11931;SDS011;6025;51.368;6.788;2023-01-16T03:05:47;4.43;;;1.00;;
11931;SDS011;6025;51.368;6.788;2023-01-16T03:16:13;2.63;;;1.00;;
11931;SDS011;6025;51.368;6.788;2023-01-16T03:21:12;1.70;;;0.80;;
11931;SDS011;6025;51.368;6.788;2023-01-16T03:26:09;1.47;;;0.80;;
11931;SDS011;6025;51.368;6.788;2023-01-16T03:31:05;1.20;;;0.60;;
11931;SDS011;6025;51.368;6.788;2023-01-16T03:36:04;2.77;;;0.60;;
11931;SDS011;6025;51.368;6.788;2023-01-16T03:40:59;2.80;;;0.90;;
11931;SDS011;6025;51.368;6.788;2023-01-16T03:45:54;2.20;;;0.77;;
11931;SDS011;6025;51.368;6.788;2023-01-16T03:50:48;1.93;;;0.63;;
11931;SDS011;6025;51.368;6.788;2023-01-16T03:55:43;1.27;;;0.70;;
11931;SDS011;6025;51.368;6.788;2023-01-16T04:00:39;2.60;;;0.70;;
11931;SDS011;6025;51.368;6.788;2023-01-16T04:05:36;1.50;;;0.60;;
11931;SDS011;6025;51.368;6.788;2023-01-16T04:10:32;1.80;;;0.60;;
11931;SDS011;6025;51.368;6.788;2023-01-16T04:15:25;1.10;;;0.60;;
11931;SDS011;6025;51.368;6.788;2023-01-16T04:20:20;1.10;;;0.50;;
11931;SDS011;6025;51.368;6.788;2023-01-16T04:25:11;0.70;;;0.40;;
11931;SDS011;6025;51.368;6.788;2023-01-16T04:30:03;1.23;;;0.60;;
11931;SDS011;6025;51.368;6.788;2023-01-16T04:34:55;0.50;;;0.43;;
11931;SDS011;6025;51.368;6.788;2023-01-16T04:39:48;1.30;;;0.57;;
11931;SDS011;6025;51.368;6.788;2023-01-16T04:44:40;0.87;;;0.50;;
11931;SDS011;6025;51.368;6.788;2023-01-16T04:49:31;1.47;;;0.57;;
11931;SDS011;6025;51.368;6.788;2023-01-16T04:54:23;2.47;;;0.70;;
11931;SDS011;6025;51.368;6.788;2023-01-16T04:59:15;1.17;;;0.50;;
11931;SDS011;6025;51.368;6.788;2023-01-16T05:04:08;1.67;;;0.60;;
11931;SDS011;6025;51.368;6.788;2023-01-16T05:09:00;3.47;;;0.60;;
11931;SDS011;6025;51.368;6.788;2023-01-16T05:13:52;2.70;;;0.77;;
11931;SDS011;6025;51.368;6.788;2023-01-16T05:18:45;0.77;;;0.40;;
11931;SDS011;6025;51.368;6.788;2023-01-16T05:23:37;2.60;;;0.90;;
11931;SDS011;6025;51.368;6.788;2023-01-16T05:28:28;2.50;;;0.70;;
11931;SDS011;6025;51.368;6.788;2023-01-16T05:33:20;3.10;;;0.87;;
11931;SDS011;6025;51.368;6.788;2023-01-16T05:38:13;1.37;;;0.70;;
11931;SDS011;6025;51.368;6.788;2023-01-16T05:43:04;1.37;;;0.60;;
11931;SDS011;6025;51.368;6.788;2023-01-16T05:47:56;2.30;;;0.73;;
11931;SDS011;6025;51.368;6.788;2023-01-16T05:52:48;2.93;;;0.90;;
11931;SDS011;6025;51.368;6.788;2023-01-16T05:57:41;1.87;;;0.70;;
11931;SDS011;6025;51.368;6.788;2023-01-16T06:02:32;0.93;;;0.57;;
11931;SDS011;6025;51.368;6.788;2023-01-16T06:07:24;1.30;;;0.60;;
11931;SDS011;6025;51.368;6.788;2023-01-16T06:12:16;2.03;;;0.83;;
11931;SDS011;6025;51.368;6.788;2023-01-16T06:17:09;2.97;;;0.70;;
11931;SDS011;6025;51.368;6.788;2023-01-16T06:22:04;0.63;;;0.43;;
11931;SDS011;6025;51.368;6.788;2023-01-16T06:26:55;2.03;;;0.70;;
11931;SDS011;6025;51.368;6.788;2023-01-16T06:31:47;2.63;;;0.70;;
11931;SDS011;6025;51.368;6.788;2023-01-16T06:36:40;1.30;;;0.50;;
11931;SDS011;6025;51.368;6.788;2023-01-16T06:41:32;0.73;;;0.50;;
11931;SDS011;6025;51.368;6.788;2023-01-16T06:46:24;0.93;;;0.53;;
11931;SDS011;6025;51.368;6.788;2023-01-16T06:51:15;1.73;;;0.50;;
11931;SDS011;6025;51.368;6.788;2023-01-16T06:56:08;3.53;;;0.70;;
11931;SDS011;6025;51.368;6.788;2023-01-16T07:01:00;1.27;;;0.60;;
11931;SDS011;6025;51.368;6.788;2023-01-16T07:05:51;1.27;;;0.50;;
11931;SDS011;6025;51.368;6.788;2023-01-16T07:10:43;2.57;;;0.80;;
11931;SDS011;6025;51.368;6.788;2023-01-16T07:15:36;1.20;;;0.40;;
11931;SDS011;6025;51.368;6.788;2023-01-16T07:20:46;1.10;;;0.50;;
11931;SDS011;6025;51.368;6.788;2023-01-16T07:25:56;1.17;;;0.60;;
11931;SDS011;6025;51.368;6.788;2023-01-16T07:30:50;0.67;;;0.50;;
11931;SDS011;6025;51.368;6.788;2023-01-16T07:35:41;1.97;;;0.70;;
11931;SDS011;6025;51.368;6.788;2023-01-16T07:40:33;1.87;;;0.70;;
11931;SDS011;6025;51.368;6.788;2023-01-16T07:45:25;2.83;;;0.80;;
11931;SDS011;6025;51.368;6.788;2023-01-16T07:50:18;2.40;;;0.87;;
11931;SDS011;6025;51.368;6.788;2023-01-16T07:55:09;1.40;;;0.80;;
11931;SDS011;6025;51.368;6.788;2023-01-16T08:00:01;1.30;;;0.90;;
11931;SDS011;6025;51.368;6.788;2023-01-16T08:04:53;2.50;;;0.90;;
11931;SDS011;6025;51.368;6.788;2023-01-16T08:09:46;2.20;;;0.90;;
11931;SDS011;6025;51.368;6.788;2023-01-16T08:14:37;2.83;;;0.80;;
11931;SDS011;6025;51.368;6.788;2023-01-16T08:19:29;2.80;;;1.10;;
11931;SDS011;6025;51.368;6.788;2023-01-16T08:24:20;1.60;;;0.90;;
11931;SDS011;6025;51.368;6.788;2023-01-16T08:29:15;3.27;;;1.27;;
11931;SDS011;6025;51.368;6.788;2023-01-16T08:34:07;2.17;;;1.00;;
11931;SDS011;6025;51.368;6.788;2023-01-16T08:38:58;1.87;;;0.90;;
11931;SDS011;6025;51.368;6.788;2023-01-16T08:43:50;1.73;;;0.77;;
11931;SDS011;6025;51.368;6.788;2023-01-16T08:49:01;2.60;;;0.80;;
11931;SDS011;6025;51.368;6.788;2023-01-16T08:54:10;2.77;;;1.00;;
11931;SDS011;6025;51.368;6.788;2023-01-16T08:59:02;1.47;;;0.77;;
11931;SDS011;6025;51.368;6.788;2023-01-16T09:03:53;2.53;;;0.80;;
11931;SDS011;6025;51.368;6.788;2023-01-16T09:08:46;2.63;;;1.00;;
11931;SDS011;6025;51.368;6.788;2023-01-16T09:13:38;2.77;;;0.80;;
11931;SDS011;6025;51.368;6.788;2023-01-16T09:18:42;2.27;;;0.63;;
11931;SDS011;6025;51.368;6.788;2023-01-16T09:23:34;2.60;;;0.87;;
11931;SDS011;6025;51.368;6.788;2023-01-16T09:28:26;0.90;;;0.50;;
11931;SDS011;6025;51.368;6.788;2023-01-16T09:33:18;1.60;;;0.50;;
11931;SDS011;6025;51.368;6.788;2023-01-16T09:38:09;1.03;;;0.60;;
11931;SDS011;6025;51.368;6.788;2023-01-16T09:43:04;1.23;;;0.70;;
11931;SDS011;6025;51.368;6.788;2023-01-16T09:48:23;1.83;;;0.70;;
11931;SDS011;6025;51.368;6.788;2023-01-16T09:53:19;1.13;;;0.53;;
11931;SDS011;6025;51.368;6.788;2023-01-16T09:58:30;1.17;;;0.50;;
11931;SDS011;6025;51.368;6.788;2023-01-16T10:03:29;1.23;;;0.70;;
11931;SDS011;6025;51.368;6.788;2023-01-16T10:08:22;1.80;;;0.87;;
11931;SDS011;6025;51.368;6.788;2023-01-16T10:13:29;1.57;;;0.60;;
11931;SDS011;6025;51.368;6.788;2023-01-16T10:18:32;2.33;;;0.50;;
11931;SDS011;6025;51.368;6.788;2023-01-16T10:23:33;1.00;;;0.77;;
11931;SDS011;6025;51.368;6.788;2023-01-16T10:28:34;2.00;;;0.57;;
11931;SDS011;6025;51.368;6.788;2023-01-16T10:33:40;1.27;;;0.60;;
11931;SDS011;6025;51.368;6.788;2023-01-16T10:38:35;0.93;;;0.53;;
11931;SDS011;6025;51.368;6.788;2023-01-16T10:43:34;1.17;;;0.40;;
11931;SDS011;6025;51.368;6.788;2023-01-16T10:48:47;1.27;;;0.37;;
11931;SDS011;6025;51.368;6.788;2023-01-16T10:53:56;0.80;;;0.43;;
11931;SDS011;6025;51.368;6.788;2023-01-16T10:58:48;3.33;;;0.67;;
11931;SDS011;6025;51.368;6.788;2023-01-16T11:03:42;0.60;;;0.47;;
11931;SDS011;6025;51.368;6.788;2023-01-16T11:08:36;1.27;;;0.50;;
11931;SDS011;6025;51.368;6.788;2023-01-16T11:13:28;1.03;;;0.50;;
11931;SDS011;6025;51.368;6.788;2023-01-16T11:18:38;1.27;;;0.53;;
11931;SDS011;6025;51.368;6.788;2023-01-16T11:23:37;0.40;;;0.30;;
11931;SDS011;6025;51.368;6.788;2023-01-16T11:28:30;0.87;;;0.50;;
11931;SDS011;6025;51.368;6.788;2023-01-16T11:33:23;0.80;;;0.30;;
11931;SDS011;6025;51.368;6.788;2023-01-16T11:38:15;0.57;;;0.40;;
11931;SDS011;6025;51.368;6.788;2023-01-16T11:43:12;1.27;;;0.40;;
11931;SDS011;6025;51.368;6.788;2023-01-16T11:48:23;1.03;;;0.50;;
11931;SDS011;6025;51.368;6.788;2023-01-16T11:53:14;0.67;;;0.40;;
11931;SDS011;6025;51.368;6.788;2023-01-16T11:58:06;0.40;;;0.30;;
11931;SDS011;6025;51.368;6.788;2023-01-16T12:03:17;1.07;;;0.50;;
11931;SDS011;6025;51.368;6.788;2023-01-16T12:08:42;1.17;;;0.50;;
11931;SDS011;6025;51.368;6.788;2023-01-16T12:13:44;1.13;;;0.50;;
11931;SDS011;6025;51.368;6.788;2023-01-16T12:19:01;0.73;;;0.50;;
11931;SDS011;6025;51.368;6.788;2023-01-16T12:24:06;0.77;;;0.50;;
11931;SDS011;6025;51.368;6.788;2023-01-16T12:29:06;0.57;;;0.43;;
11931;SDS011;6025;51.368;6.788;2023-01-16T12:34:07;0.87;;;0.50;;
11931;SDS011;6025;51.368;6.788;2023-01-16T12:39:07;1.17;;;0.50;;
11931;SDS011;6025;51.368;6.788;2023-01-16T12:44:17;1.43;;;0.57;;
11931;SDS011;6025;51.368;6.788;2023-01-16T12:49:19;0.90;;;0.50;;
11931;SDS011;6025;51.368;6.788;2023-01-16T12:54:20;0.90;;;0.50;;
11931;SDS011;6025;51.368;6.788;2023-01-16T12:59:27;1.03;;;0.37;;
11931;SDS011;6025;51.368;6.788;2023-01-16T13:04:21;2.20;;;0.60;;
11931;SDS011;6025;51.368;6.788;2023-01-16T13:09:15;1.23;;;0.43;;
11931;SDS011;6025;51.368;6.788;2023-01-16T13:14:11;0.70;;;0.40;;
11931;SDS011;6025;51.368;6.788;2023-01-16T13:19:05;0.80;;;0.67;;
11931;SDS011;6025;51.368;6.788;2023-01-16T13:24:03;1.57;;;0.40;;
11931;SDS011;6025;51.368;6.788;2023-01-16T13:28:59;0.50;;;0.33;;
11931;SDS011;6025;51.368;6.788;2023-01-16T13:33:56;1.83;;;0.50;;
11931;SDS011;6025;51.368;6.788;2023-01-16T13:38:53;0.73;;;0.50;;
11931;SDS011;6025;51.368;6.788;2023-01-16T13:43:53;1.67;;;0.63;;
11931;SDS011;6025;51.368;6.788;2023-01-16T13:49:03;1.07;;;0.70;;
11931;SDS011;6025;51.368;6.788;2023-01-16T13:53:57;1.07;;;0.70;;
11931;SDS011;6025;51.368;6.788;2023-01-16T13:58:53;1.87;;;0.70;;
11931;SDS011;6025;51.368;6.788;2023-01-16T14:09:20;1.20;;;0.53;;
11931;SDS011;6025;51.368;6.788;2023-01-16T14:14:27;1.13;;;0.70;;
11931;SDS011;6025;51.368;6.788;2023-01-16T14:19:41;0.93;;;0.60;;
11931;SDS011;6025;51.368;6.788;2023-01-16T14:24:41;1.10;;;0.70;;
11931;SDS011;6025;51.368;6.788;2023-01-16T14:29:35;0.80;;;0.60;;
11931;SDS011;6025;51.368;6.788;2023-01-16T14:34:28;1.07;;;0.53;;
11931;SDS011;6025;51.368;6.788;2023-01-16T14:39:25;0.73;;;0.53;;
11931;SDS011;6025;51.368;6.788;2023-01-16T14:44:20;1.07;;;0.47;;
11931;SDS011;6025;51.368;6.788;2023-01-16T14:49:39;0.60;;;0.50;;
11931;SDS011;6025;51.368;6.788;2023-01-16T14:54:50;1.10;;;0.60;;
11931;SDS011;6025;51.368;6.788;2023-01-16T15:00:03;0.70;;;0.53;;
11931;SDS011;6025;51.368;6.788;2023-01-16T15:05:02;0.83;;;0.50;;
11931;SDS011;6025;51.368;6.788;2023-01-16T15:09:58;0.83;;;0.50;;
11931;SDS011;6025;51.368;6.788;2023-01-16T15:14:53;0.50;;;0.50;;
11931;SDS011;6025;51.368;6.788;2023-01-16T15:19:56;0.70;;;0.50;;
11931;SDS011;6025;51.368;6.788;2023-01-16T15:25:14;0.50;;;0.47;;
11931;SDS011;6025;51.368;6.788;2023-01-16T15:30:12;0.77;;;0.53;;
11931;SDS011;6025;51.368;6.788;2023-01-16T15:35:12;1.87;;;1.00;;
11931;SDS011;6025;51.368;6.788;2023-01-16T15:40:05;1.17;;;0.67;;
11931;SDS011;6025;51.368;6.788;2023-01-16T15:44:59;0.70;;;0.53;;
11931;SDS011;6025;51.368;6.788;2023-01-16T15:50:14;1.53;;;0.77;;
11931;SDS011;6025;51.368;6.788;2023-01-16T15:55:15;1.93;;;0.70;;
11931;SDS011;6025;51.368;6.788;2023-01-16T16:00:21;0.77;;;0.57;;
11931;SDS011;6025;51.368;6.788;2023-01-16T16:05:16;2.43;;;0.83;;
11931;SDS011;6025;51.368;6.788;2023-01-16T16:10:11;2.20;;;0.80;;
11931;SDS011;6025;51.368;6.788;2023-01-16T16:15:24;1.97;;;0.80;;
11931;SDS011;6025;51.368;6.788;2023-01-16T16:20:35;1.07;;;0.80;;
11931;SDS011;6025;51.368;6.788;2023-01-16T16:25:30;1.10;;;0.90;;
11931;SDS011;6025;51.368;6.788;2023-01-16T16:30:24;2.47;;;1.00;;
11931;SDS011;6025;51.368;6.788;2023-01-16T16:35:17;1.77;;;1.20;;
11931;SDS011;6025;51.368;6.788;2023-01-16T16:40:13;1.83;;;1.03;;
11931;SDS011;6025;51.368;6.788;2023-01-16T16:45:08;1.33;;;0.90;;
11931;SDS011;6025;51.368;6.788;2023-01-16T16:50:08;0.87;;;0.80;;
11931;SDS011;6025;51.368;6.788;2023-01-16T16:55:26;1.73;;;1.23;;
11931;SDS011;6025;51.368;6.788;2023-01-16T17:00:19;1.53;;;0.90;;
11931;SDS011;6025;51.368;6.788;2023-01-16T17:05:11;2.17;;;1.00;;
11931;SDS011;6025;51.368;6.788;2023-01-16T17:10:05;1.90;;;1.10;;
11931;SDS011;6025;51.368;6.788;2023-01-16T17:15:03;2.47;;;1.23;;
11931;SDS011;6025;51.368;6.788;2023-01-16T17:19:55;1.60;;;1.17;;
11931;SDS011;6025;51.368;6.788;2023-01-16T17:24:46;1.97;;;1.30;;
11931;SDS011;6025;51.368;6.788;2023-01-16T17:29:40;2.00;;;1.40;;
11931;SDS011;6025;51.368;6.788;2023-01-16T17:34:33;3.10;;;1.70;;
11931;SDS011;6025;51.368;6.788;2023-01-16T17:39:25;2.30;;;2.00;;
11931;SDS011;6025;51.368;6.788;2023-01-16T17:44:19;2.70;;;2.20;;
11931;SDS011;6025;51.368;6.788;2023-01-16T17:49:29;2.57;;;2.13;;
11931;SDS011;6025;51.368;6.788;2023-01-16T17:54:22;2.87;;;2.37;;
11931;SDS011;6025;51.368;6.788;2023-01-16T17:59:28;2.60;;;2.40;;
11931;SDS011;6025;51.368;6.788;2023-01-16T18:04:19;3.93;;;2.37;;
11931;SDS011;6025;51.368;6.788;2023-01-16T18:09:11;2.57;;;2.17;;
11931;SDS011;6025;51.368;6.788;2023-01-16T18:14:08;3.70;;;2.70;;
11931;SDS011;6025;51.368;6.788;2023-01-16T18:19:18;3.80;;;3.40;;
11931;SDS011;6025;51.368;6.788;2023-01-16T18:24:09;6.07;;;3.20;;
11931;SDS011;6025;51.368;6.788;2023-01-16T18:29:01;4.20;;;2.83;;
11931;SDS011;6025;51.368;6.788;2023-01-16T18:33:53;4.70;;;2.70;;
11931;SDS011;6025;51.368;6.788;2023-01-16T18:38:45;4.03;;;3.07;;
11931;SDS011;6025;51.368;6.788;2023-01-16T18:43:54;3.87;;;3.20;;
11931;SDS011;6025;51.368;6.788;2023-01-16T18:49:04;3.00;;;2.50;;
11931;SDS011;6025;51.368;6.788;2023-01-16T18:54:14;2.73;;;2.47;;
11931;SDS011;6025;51.368;6.788;2023-01-16T18:59:24;3.70;;;2.80;;
11931;SDS011;6025;51.368;6.788;2023-01-16T19:04:36;4.13;;;2.70;;
11931;SDS011;6025;51.368;6.788;2023-01-16T19:09:28;7.27;;;3.03;;
11931;SDS011;6025;51.368;6.788;2023-01-16T19:14:21;4.20;;;3.10;;
11931;SDS011;6025;51.368;6.788;2023-01-16T19:19:14;3.80;;;3.10;;
11931;SDS011;6025;51.368;6.788;2023-01-16T19:24:08;4.20;;;3.73;;
11931;SDS011;6025;51.368;6.788;2023-01-16T19:29:01;4.33;;;3.60;;
11931;SDS011;6025;51.368;6.788;2023-01-16T19:33:53;5.03;;;4.00;;
11931;SDS011;6025;51.368;6.788;2023-01-16T19:38:46;4.77;;;4.30;;
11931;SDS011;6025;51.368;6.788;2023-01-16T19:43:47;4.30;;;3.90;;
11931;SDS011;6025;51.368;6.788;2023-01-16T19:48:56;5.57;;;5.00;;
11931;SDS011;6025;51.368;6.788;2023-01-16T19:53:50;5.07;;;4.60;;
11931;SDS011;6025;51.368;6.788;2023-01-16T19:58:42;4.90;;;4.40;;
11931;SDS011;6025;51.368;6.788;2023-01-16T20:03:39;4.67;;;4.27;;
11931;SDS011;6025;51.368;6.788;2023-01-16T20:08:31;4.07;;;3.60;;
11931;SDS011;6025;51.368;6.788;2023-01-16T20:13:23;3.50;;;3.20;;
11931;SDS011;6025;51.368;6.788;2023-01-16T20:18:15;3.60;;;3.30;;
11931;SDS011;6025;51.368;6.788;2023-01-16T20:23:11;7.70;;;5.80;;
11931;SDS011;6025;51.368;6.788;2023-01-16T20:28:03;10.60;;;8.57;;
11931;SDS011;6025;51.368;6.788;2023-01-16T20:32:55;10.80;;;8.73;;
11931;SDS011;6025;51.368;6.788;2023-01-16T20:37:47;8.43;;;7.10;;
11931;SDS011;6025;51.368;6.788;2023-01-16T20:42:40;5.00;;;4.50;;
11931;SDS011;6025;51.368;6.788;2023-01-16T20:47:49;5.17;;;3.87;;
11931;SDS011;6025;51.368;6.788;2023-01-16T20:52:41;4.87;;;4.20;;
11931;SDS011;6025;51.368;6.788;2023-01-16T20:57:33;4.60;;;3.67;;
11931;SDS011;6025;51.368;6.788;2023-01-16T21:02:30;6.80;;;5.43;;
11931;SDS011;6025;51.368;6.788;2023-01-16T21:07:24;8.77;;;6.67;;
11931;SDS011;6025;51.368;6.788;2023-01-16T21:12:17;8.50;;;6.60;;
11931;SDS011;6025;51.368;6.788;2023-01-16T21:17:26;5.17;;;4.67;;
11931;SDS011;6025;51.368;6.788;2023-01-16T21:22:37;6.43;;;4.90;;
11931;SDS011;6025;51.368;6.788;2023-01-16T21:27:34;5.80;;;4.67;;
11931;SDS011;6025;51.368;6.788;2023-01-16T21:32:28;7.10;;;5.77;;
11931;SDS011;6025;51.368;6.788;2023-01-16T21:37:20;9.27;;;7.80;;
11931;SDS011;6025;51.368;6.788;2023-01-16T21:42:15;2.50;;;2.07;;
11931;SDS011;6025;51.368;6.788;2023-01-16T21:47:25;1.87;;;1.67;;
11931;SDS011;6025;51.368;6.788;2023-01-16T21:52:20;2.00;;;1.80;;
11931;SDS011;6025;51.368;6.788;2023-01-16T21:57:14;3.10;;;2.40;;
11931;SDS011;6025;51.368;6.788;2023-01-16T22:02:05;4.07;;;2.70;;
11931;SDS011;6025;51.368;6.788;2023-01-16T22:06:57;3.47;;;3.13;;
11931;SDS011;6025;51.368;6.788;2023-01-16T22:11:49;4.93;;;3.13;;
11931;SDS011;6025;51.368;6.788;2023-01-16T22:16:59;5.07;;;3.23;;
11931;SDS011;6025;51.368;6.788;2023-01-16T22:22:09;3.70;;;3.40;;
11931;SDS011;6025;51.368;6.788;2023-01-16T22:27:01;3.50;;;3.20;;
11931;SDS011;6025;51.368;6.788;2023-01-16T22:31:54;3.90;;;3.60;;
11931;SDS011;6025;51.368;6.788;2023-01-16T22:36:48;3.70;;;3.40;;
11931;SDS011;6025;51.368;6.788;2023-01-16T22:41:40;3.40;;;3.07;;
11931;SDS011;6025;51.368;6.788;2023-01-16T22:46:31;4.13;;;2.80;;
11931;SDS011;6025;51.368;6.788;2023-01-16T22:51:25;3.13;;;2.83;;
11931;SDS011;6025;51.368;6.788;2023-01-16T22:56:28;3.40;;;2.60;;
11931;SDS011;6025;51.368;6.788;2023-01-16T23:01:20;3.60;;;3.17;;
11931;SDS011;6025;51.368;6.788;2023-01-16T23:11:28;3.63;;;3.13;;
11931;SDS011;6025;51.368;6.788;2023-01-16T23:16:25;4.00;;;2.97;;
11931;SDS011;6025;51.368;6.788;2023-01-16T23:21:18;3.10;;;2.60;;
11931;SDS011;6025;51.368;6.788;2023-01-16T23:26:10;2.43;;;2.23;;
11931;SDS011;6025;51.368;6.788;2023-01-16T23:31:06;3.73;;;2.20;;
11931;SDS011;6025;51.368;6.788;2023-01-16T23:36:11;2.43;;;2.13;;
11931;SDS011;6025;51.368;6.788;2023-01-16T23:41:04;3.30;;;2.80;;
11931;SDS011;6025;51.368;6.788;2023-01-16T23:45:57;4.03;;;3.63;;
11931;SDS011;6025;51.368;6.788;2023-01-16T23:50:50;3.73;;;3.43;;
11931;SDS011;6025;51.368;6.788;2023-01-16T23:55:42;3.97;;;3.20;;
